< < Back
Terminal Aerodrome Forecast


Current Version              Previous Versions:   1  2  3  4  5  6  7  8  9  

Terminal Aerodrome Forecast

683
FTUS42 KGSP 231700
TAFAVL
TAF
KAVL 231722Z 2318/2418 35012G18KT P6SM SKC
     FM232300 34008KT P6SM SKC
     FM240400 00000KT P6SM FEW250
     FM241300 16004KT P6SM FEW200
     FM241500 17008KT P6SM FEW200=



Latest METAR

631
SAUS70 KWBC 241800 RRB
MTRAVL
METAR KAVL 241754Z 14007KT 100V160 10SM CLR 19/01 A3004 RMK AO2 SLP159
T01940011 10200 20050 58033


USA.gov is the U.S. government's official web portal to all federal, state and local government web resources and services.